createdAt,value
2024-01-12T00:03:44.019Z,-1.40
2024-01-12T00:08:46.554Z,-0.90
2024-01-12T00:13:50.955Z,-0.60
2024-01-12T00:18:53.562Z,-0.40
2024-01-12T00:23:56.025Z,0.20
2024-01-12T00:28:58.668Z,0.20
2024-01-12T00:34:01.610Z,0.60
2024-01-12T00:39:05.229Z,0.40
2024-01-12T00:44:08.412Z,0.40
2024-01-12T00:49:11.163Z,0.40
2024-01-12T00:54:14.109Z,0.30
2024-01-12T00:59:17.060Z,0.30
2024-01-12T01:04:19.504Z,0.20
2024-01-12T01:09:22.172Z,0.40
2024-01-12T01:14:26.746Z,0.00
2024-01-12T01:19:29.606Z,-0.10
2024-01-12T01:24:32.478Z,0.10
2024-01-12T01:29:35.386Z,0.10
2024-01-12T01:34:37.843Z,0.10
2024-01-12T01:39:40.302Z,-0.20
2024-01-12T01:44:43.082Z,-0.20
2024-01-12T01:49:45.604Z,-0.20
2024-01-12T01:54:48.692Z,-0.10
2024-01-12T01:59:51.651Z,-0.40
2024-01-12T02:04:55.733Z,-1.10
2024-01-12T02:09:59.648Z,-0.90
2024-01-12T02:15:02.868Z,-0.90
2024-01-12T02:20:05.999Z,-1.10
2024-01-12T02:25:09.469Z,-1.40
2024-01-12T02:30:12.513Z,-1.20
2024-01-12T02:35:15.140Z,-0.80
2024-01-12T02:40:17.647Z,-1.20
2024-01-12T02:45:20.393Z,-1.20
2024-01-12T02:50:23.503Z,-1.10
2024-01-12T02:55:26.052Z,-1.00
2024-01-12T03:00:31.810Z,-1.20
2024-01-12T03:05:35.080Z,-1.40
2024-01-12T03:10:37.932Z,-1.20
2024-01-12T03:15:40.454Z,-1.30
2024-01-12T03:20:43.057Z,-1.40
2024-01-12T03:25:45.524Z,-1.20
2024-01-12T03:30:49.058Z,-0.90
2024-01-12T03:35:51.761Z,-1.30
2024-01-12T03:40:54.215Z,-1.30
2024-01-12T03:45:56.753Z,-1.20
2024-01-12T03:50:59.379Z,-1.30
2024-01-12T03:56:01.961Z,-1.10
2024-01-12T04:01:07.650Z,-1.40
2024-01-12T04:06:11.312Z,-1.70
2024-01-12T04:11:24.203Z,-1.40
2024-01-12T04:16:26.815Z,-1.20
2024-01-12T04:21:29.188Z,-1.00
2024-01-12T04:26:31.659Z,-0.50
2024-01-12T04:31:39.322Z,-0.10
2024-01-12T04:36:41.788Z,0.40
2024-01-12T04:41:44.403Z,0.80
2024-01-12T04:46:46.871Z,1.30
2024-01-12T04:51:49.503Z,1.30
2024-01-12T04:56:53.013Z,1.30
2024-01-12T05:01:55.561Z,1.50
2024-01-12T05:06:58.121Z,1.40
2024-01-12T05:12:04.594Z,1.10
2024-01-12T05:17:08.174Z,1.00
2024-01-12T05:22:10.619Z,1.20
2024-01-12T05:27:13.364Z,1.50
2024-01-12T05:32:15.804Z,1.60
2024-01-12T05:37:18.383Z,1.60
2024-01-12T05:42:21.143Z,1.50
2024-01-12T05:47:23.638Z,1.60
2024-01-12T05:52:26.039Z,1.30
2024-01-12T05:57:28.487Z,1.30
2024-01-12T06:02:31.055Z,1.70
2024-01-12T06:07:33.487Z,2.10
2024-01-12T06:12:35.925Z,1.90
2024-01-12T06:17:38.399Z,1.30
2024-01-12T06:22:40.994Z,0.80
2024-01-12T06:27:44.132Z,0.70
2024-01-12T06:32:46.548Z,0.50
2024-01-12T06:37:49.091Z,0.60
2024-01-12T06:42:51.576Z,1.00
2024-01-12T06:47:54.164Z,1.60
2024-01-12T06:52:57.672Z,3.40
2024-01-12T06:58:00.102Z,4.10
2024-01-12T07:03:03.130Z,3.30
2024-01-12T07:08:05.903Z,2.50
2024-01-12T07:13:08.713Z,2.20
2024-01-12T07:18:11.304Z,1.70
2024-01-12T07:23:13.813Z,1.50
2024-01-12T07:28:16.645Z,1.30
2024-01-12T07:33:19.268Z,1.50
2024-01-12T07:38:21.793Z,1.60
2024-01-12T07:43:24.490Z,1.30
2024-01-12T07:48:27.468Z,1.00
2024-01-12T07:53:30.676Z,1.50
2024-01-12T07:58:33.350Z,2.30
2024-01-12T08:03:35.969Z,2.60
2024-01-12T08:08:38.842Z,2.90
2024-01-12T08:13:41.288Z,2.90
2024-01-12T08:18:43.866Z,3.60
2024-01-12T08:23:46.358Z,3.00
2024-01-12T08:28:52.526Z,3.90
2024-01-12T08:33:55.190Z,5.00
2024-01-12T08:38:57.803Z,5.90
2024-01-12T08:44:00.329Z,6.50
2024-01-12T08:49:02.937Z,6.30
2024-01-12T08:54:05.531Z,6.40
2024-01-12T08:59:09.292Z,6.80
2024-01-12T09:04:12.359Z,6.90
2024-01-12T09:09:14.863Z,7.60
2024-01-12T09:14:17.527Z,7.40
2024-01-12T09:19:20.148Z,7.60
2024-01-12T09:24:22.757Z,7.50
2024-01-12T09:29:25.248Z,7.80
2024-01-12T09:34:27.865Z,8.50
2024-01-12T09:39:30.431Z,8.80
2024-01-12T09:44:38.720Z,9.00
2024-01-12T09:49:45.956Z,9.20
2024-01-12T09:54:48.691Z,8.80
2024-01-12T09:59:52.145Z,8.80
2024-01-12T10:04:54.603Z,9.10
2024-01-12T10:09:57.120Z,8.90
2024-01-12T10:15:06.283Z,9.00
2024-01-12T10:20:10.981Z,8.90
2024-01-12T10:25:15.056Z,9.10
2024-01-12T10:30:19.098Z,9.70
2024-01-12T10:35:21.911Z,9.30
2024-01-12T10:40:24.803Z,9.50
2024-01-12T10:45:29.549Z,9.40
2024-01-12T10:50:41.958Z,9.20
2024-01-12T10:55:54.056Z,9.20
2024-01-12T11:00:56.861Z,9.20
2024-01-12T11:06:00.920Z,9.00
2024-01-12T11:11:05.847Z,9.20
2024-01-12T11:16:10.000Z,9.00
2024-01-12T11:21:12.718Z,7.60
2024-01-12T11:26:15.215Z,8.70
2024-01-12T11:31:28.044Z,9.20
2024-01-12T11:36:31.506Z,9.40
2024-01-12T11:41:34.169Z,8.70
2024-01-12T11:46:36.740Z,8.90
2024-01-12T11:51:39.531Z,9.10
2024-01-12T11:56:43.717Z,9.40
2024-01-12T12:01:46.181Z,9.40
2024-01-12T12:06:49.637Z,9.20
2024-01-12T12:11:52.122Z,9.10
2024-01-12T12:16:55.307Z,9.00
2024-01-12T12:21:58.305Z,9.00
2024-01-12T12:27:00.933Z,9.00
2024-01-12T12:32:03.418Z,9.40
2024-01-12T12:37:10.188Z,8.90
2024-01-12T12:42:14.529Z,8.40
2024-01-12T12:47:17.750Z,8.50
2024-01-12T12:52:20.236Z,8.40
2024-01-12T12:57:22.900Z,8.90
2024-01-12T13:02:25.700Z,9.30
2024-01-12T13:07:28.162Z,9.80
2024-01-12T13:12:30.749Z,9.70
2024-01-12T13:17:33.343Z,10.10
2024-01-12T13:22:35.817Z,10.20
2024-01-12T13:27:38.600Z,10.30
2024-01-12T13:32:41.478Z,10.20
2024-01-12T13:37:44.075Z,10.50
2024-01-12T13:42:49.131Z,10.20
2024-01-12T13:47:51.684Z,9.90
2024-01-12T13:52:55.288Z,10.20
2024-01-12T13:57:58.244Z,10.50
2024-01-12T14:03:00.810Z,10.20
2024-01-12T14:08:04.082Z,9.50
2024-01-12T14:13:06.791Z,9.40
2024-01-12T14:18:11.706Z,9.50
2024-01-12T14:23:14.890Z,9.60
2024-01-12T14:28:24.368Z,9.70
2024-01-12T14:33:35.410Z,9.80
2024-01-12T14:38:38.142Z,9.70
2024-01-12T14:43:43.065Z,9.70
2024-01-12T14:48:46.171Z,9.60
2024-01-12T14:53:49.408Z,9.30
2024-01-12T14:58:52.321Z,8.70
2024-01-12T15:04:03.266Z,5.90
2024-01-12T15:09:09.643Z,3.30
2024-01-12T15:14:14.508Z,2.90
2024-01-12T15:19:17.241Z,4.60
2024-01-12T15:24:19.760Z,7.40
2024-01-12T15:29:22.216Z,9.00
2024-01-12T15:34:26.561Z,9.60
2024-01-12T15:39:29.350Z,10.00
2024-01-12T15:44:34.247Z,10.50
2024-01-12T15:49:36.888Z,10.60
2024-01-12T15:54:43.254Z,10.60
2024-01-12T15:59:46.581Z,10.20
2024-01-12T16:04:49.131Z,10.10
2024-01-12T16:09:51.578Z,10.20
2024-01-12T16:14:54.153Z,10.00
2024-01-12T16:19:57.336Z,9.90
2024-01-12T16:25:00.056Z,10.10
2024-01-12T16:30:02.581Z,10.20
2024-01-12T16:35:06.183Z,10.40
2024-01-12T16:40:09.198Z,10.80
2024-01-12T16:45:11.662Z,10.70
2024-01-12T16:50:18.922Z,10.30
2024-01-12T16:55:21.820Z,10.40
2024-01-12T17:00:24.368Z,11.10
2024-01-12T17:05:26.943Z,10.30
2024-01-12T17:10:29.598Z,10.30
2024-01-12T17:15:32.169Z,10.30
2024-01-12T17:20:36.073Z,10.10
2024-01-12T17:25:38.468Z,10.20
2024-01-12T17:30:44.560Z,10.10
2024-01-12T17:35:48.640Z,10.10
2024-01-12T17:40:51.112Z,9.80
2024-01-12T17:45:54.448Z,9.70
2024-01-12T17:50:56.905Z,10.00
2024-01-12T17:55:59.592Z,10.00
2024-01-12T18:01:02.048Z,10.10
2024-01-12T18:06:04.995Z,9.30
2024-01-12T18:11:26.197Z,9.10
2024-01-12T18:16:30.068Z,9.30
2024-01-12T18:21:33.287Z,9.50
2024-01-12T18:26:35.755Z,10.00
2024-01-12T18:31:38.259Z,10.00
2024-01-12T18:36:40.730Z,10.00
2024-01-12T18:41:43.215Z,10.10
2024-01-12T18:46:45.877Z,10.10
2024-01-12T18:51:48.434Z,10.50
2024-01-12T18:56:50.977Z,10.50
2024-01-12T19:01:55.678Z,10.40
2024-01-12T19:06:58.397Z,10.90
2024-01-12T19:12:01.835Z,10.50
2024-01-12T19:17:05.074Z,11.00
2024-01-12T19:22:07.865Z,10.50
2024-01-12T19:27:10.664Z,10.40
2024-01-12T19:32:14.651Z,10.30
2024-01-12T19:37:20.302Z,10.60
2024-01-12T19:42:22.838Z,10.70
2024-01-12T19:47:25.615Z,10.80
2024-01-12T19:52:28.045Z,10.90
2024-01-12T19:57:30.574Z,10.70
2024-01-12T20:02:33.087Z,10.40
2024-01-12T20:07:36.648Z,10.70
2024-01-12T20:12:41.886Z,10.50
2024-01-12T20:17:44.450Z,10.50
2024-01-12T20:22:46.939Z,10.90
2024-01-12T20:27:49.381Z,10.90
2024-01-12T20:32:51.952Z,10.80
2024-01-12T20:37:54.442Z,11.00
2024-01-12T20:42:57.090Z,10.70
2024-01-12T20:47:59.510Z,10.30
2024-01-12T20:53:02.201Z,10.60
2024-01-12T20:58:07.747Z,11.00
2024-01-12T21:03:10.267Z,10.90
2024-01-12T21:08:13.582Z,10.50
2024-01-12T21:13:16.678Z,10.40
2024-01-12T21:18:19.329Z,10.20
2024-01-12T21:23:21.909Z,10.60
2024-01-12T21:28:24.417Z,10.80
2024-01-12T21:33:26.993Z,10.80
2024-01-12T21:38:29.676Z,11.10
2024-01-12T21:43:32.474Z,10.40
2024-01-12T21:48:35.022Z,10.30
2024-01-12T21:53:37.474Z,10.50
2024-01-12T21:58:39.903Z,10.50
2024-01-12T22:03:42.452Z,10.40
2024-01-12T22:08:45.053Z,10.50
2024-01-12T22:13:47.680Z,10.40
2024-01-12T22:18:50.202Z,10.50
2024-01-12T22:23:52.817Z,10.10
2024-01-12T22:28:55.695Z,9.70
2024-01-12T22:33:59.717Z,10.20
2024-01-12T22:39:02.445Z,10.30
2024-01-12T22:44:05.035Z,9.80
2024-01-12T22:49:09.532Z,9.70
2024-01-12T22:54:13.756Z,10.00
2024-01-12T22:59:16.340Z,10.40
2024-01-12T23:04:18.956Z,9.70
2024-01-12T23:09:22.128Z,9.50
2024-01-12T23:14:24.680Z,9.90
2024-01-12T23:19:27.966Z,9.90
2024-01-12T23:24:30.595Z,9.20
2024-01-12T23:29:38.259Z,9.00
2024-01-12T23:34:48.518Z,9.10
2024-01-12T23:39:51.419Z,9.40
2024-01-12T23:44:54.012Z,9.70
2024-01-12T23:49:56.621Z,9.80
2024-01-12T23:54:59.007Z,10.10
